sensor_id;sensor_type;location;lat;lon;timestamp;P1;durP1;ratioP1;P2;durP2;ratioP2
16826;SDS011;8530;49.540;8.576;2023-09-19T00:01:38;4.70;;;2.37;;
16826;SDS011;8530;49.540;8.576;2023-09-19T00:04:07;4.67;;;1.97;;
16826;SDS011;8530;49.540;8.576;2023-09-19T00:06:34;4.10;;;1.80;;
16826;SDS011;8530;49.540;8.576;2023-09-19T00:09:01;4.63;;;1.90;;
16826;SDS011;8530;49.540;8.576;2023-09-19T00:11:28;3.93;;;1.87;;
16826;SDS011;8530;49.540;8.576;2023-09-19T00:13:56;10.33;;;2.00;;
16826;SDS011;8530;49.540;8.576;2023-09-19T00:16:24;4.50;;;1.57;;
16826;SDS011;8530;49.540;8.576;2023-09-19T00:18:51;3.10;;;1.97;;
16826;SDS011;8530;49.540;8.576;2023-09-19T00:21:20;3.13;;;2.00;;
16826;SDS011;8530;49.540;8.576;2023-09-19T00:23:47;2.90;;;1.90;;
16826;SDS011;8530;49.540;8.576;2023-09-19T00:26:16;4.47;;;1.93;;
16826;SDS011;8530;49.540;8.576;2023-09-19T00:28:43;3.10;;;2.43;;
16826;SDS011;8530;49.540;8.576;2023-09-19T00:31:10;2.87;;;2.10;;
16826;SDS011;8530;49.540;8.576;2023-09-19T00:33:38;9.00;;;3.03;;
16826;SDS011;8530;49.540;8.576;2023-09-19T00:36:04;3.83;;;2.20;;
16826;SDS011;8530;49.540;8.576;2023-09-19T00:38:33;6.67;;;2.10;;
16826;SDS011;8530;49.540;8.576;2023-09-19T00:40:59;5.93;;;2.30;;
16826;SDS011;8530;49.540;8.576;2023-09-19T00:43:26;5.20;;;2.80;;
16826;SDS011;8530;49.540;8.576;2023-09-19T00:45:55;12.03;;;2.97;;
16826;SDS011;8530;49.540;8.576;2023-09-19T00:48:22;5.70;;;3.20;;
16826;SDS011;8530;49.540;8.576;2023-09-19T00:50:52;4.00;;;2.27;;
16826;SDS011;8530;49.540;8.576;2023-09-19T00:53:20;4.03;;;2.20;;
16826;SDS011;8530;49.540;8.576;2023-09-19T00:55:53;5.43;;;2.50;;
16826;SDS011;8530;49.540;8.576;2023-09-19T00:58:21;5.97;;;2.70;;
16826;SDS011;8530;49.540;8.576;2023-09-19T01:00:48;3.73;;;2.23;;
16826;SDS011;8530;49.540;8.576;2023-09-19T01:03:15;3.23;;;2.33;;
16826;SDS011;8530;49.540;8.576;2023-09-19T01:05:43;7.23;;;2.90;;
16826;SDS011;8530;49.540;8.576;2023-09-19T01:08:10;4.30;;;2.60;;
16826;SDS011;8530;49.540;8.576;2023-09-19T01:10:37;3.47;;;2.50;;
16826;SDS011;8530;49.540;8.576;2023-09-19T01:13:13;11.57;;;2.20;;
16826;SDS011;8530;49.540;8.576;2023-09-19T01:15:49;6.13;;;2.47;;
16826;SDS011;8530;49.540;8.576;2023-09-19T01:18:21;4.43;;;3.07;;
16826;SDS011;8530;49.540;8.576;2023-09-19T01:20:56;11.27;;;3.10;;
16826;SDS011;8530;49.540;8.576;2023-09-19T01:23:35;7.10;;;3.17;;
16826;SDS011;8530;49.540;8.576;2023-09-19T01:26:18;7.07;;;3.07;;
16826;SDS011;8530;49.540;8.576;2023-09-19T01:29:11;6.03;;;3.00;;
16826;SDS011;8530;49.540;8.576;2023-09-19T01:31:46;6.10;;;3.60;;
16826;SDS011;8530;49.540;8.576;2023-09-19T01:34:15;4.90;;;3.37;;
16826;SDS011;8530;49.540;8.576;2023-09-19T01:36:43;4.17;;;2.97;;
16826;SDS011;8530;49.540;8.576;2023-09-19T01:39:11;4.30;;;3.23;;
16826;SDS011;8530;49.540;8.576;2023-09-19T01:41:48;4.57;;;2.63;;
16826;SDS011;8530;49.540;8.576;2023-09-19T01:44:24;19.43;;;3.53;;
16826;SDS011;8530;49.540;8.576;2023-09-19T01:47:09;5.87;;;3.20;;
16826;SDS011;8530;49.540;8.576;2023-09-19T01:49:48;3.07;;;2.47;;
16826;SDS011;8530;49.540;8.576;2023-09-19T01:52:29;8.90;;;3.33;;
16826;SDS011;8530;49.540;8.576;2023-09-19T01:55:00;3.20;;;2.83;;
16826;SDS011;8530;49.540;8.576;2023-09-19T01:57:32;4.43;;;2.33;;
16826;SDS011;8530;49.540;8.576;2023-09-19T02:00:07;5.67;;;3.10;;
16826;SDS011;8530;49.540;8.576;2023-09-19T02:02:38;6.10;;;3.70;;
16826;SDS011;8530;49.540;8.576;2023-09-19T02:05:07;4.70;;;2.90;;
16826;SDS011;8530;49.540;8.576;2023-09-19T02:07:34;4.87;;;3.57;;
16826;SDS011;8530;49.540;8.576;2023-09-19T02:10:03;4.40;;;2.70;;
16826;SDS011;8530;49.540;8.576;2023-09-19T02:12:30;4.27;;;2.90;;
16826;SDS011;8530;49.540;8.576;2023-09-19T02:14:58;9.20;;;2.77;;
16826;SDS011;8530;49.540;8.576;2023-09-19T02:17:25;5.53;;;2.90;;
16826;SDS011;8530;49.540;8.576;2023-09-19T02:19:53;3.70;;;2.73;;
16826;SDS011;8530;49.540;8.576;2023-09-19T02:22:21;5.60;;;3.13;;
16826;SDS011;8530;49.540;8.576;2023-09-19T02:24:49;4.03;;;2.67;;
16826;SDS011;8530;49.540;8.576;2023-09-19T02:27:17;8.53;;;3.27;;
16826;SDS011;8530;49.540;8.576;2023-09-19T02:29:44;7.00;;;2.50;;
16826;SDS011;8530;49.540;8.576;2023-09-19T02:32:11;4.40;;;2.37;;
16826;SDS011;8530;49.540;8.576;2023-09-19T02:34:37;9.53;;;2.53;;
16826;SDS011;8530;49.540;8.576;2023-09-19T02:37:06;3.17;;;2.30;;
16826;SDS011;8530;49.540;8.576;2023-09-19T02:39:33;5.30;;;2.63;;
16826;SDS011;8530;49.540;8.576;2023-09-19T02:42:00;3.33;;;2.70;;
16826;SDS011;8530;49.540;8.576;2023-09-19T02:44:29;4.00;;;2.30;;
16826;SDS011;8530;49.540;8.576;2023-09-19T02:46:56;10.30;;;2.30;;
16826;SDS011;8530;49.540;8.576;2023-09-19T02:49:23;2.90;;;2.47;;
16826;SDS011;8530;49.540;8.576;2023-09-19T02:51:50;3.63;;;1.83;;
16826;SDS011;8530;49.540;8.576;2023-09-19T02:54:18;2.80;;;2.13;;
16826;SDS011;8530;49.540;8.576;2023-09-19T02:56:46;4.00;;;3.17;;
16826;SDS011;8530;49.540;8.576;2023-09-19T02:59:13;2.87;;;1.80;;
16826;SDS011;8530;49.540;8.576;2023-09-19T03:01:42;3.93;;;2.70;;
16826;SDS011;8530;49.540;8.576;2023-09-19T03:04:13;7.03;;;2.90;;
16826;SDS011;8530;49.540;8.576;2023-09-19T03:06:44;3.93;;;2.50;;
16826;SDS011;8530;49.540;8.576;2023-09-19T03:09:11;4.10;;;2.70;;
16826;SDS011;8530;49.540;8.576;2023-09-19T03:11:40;6.10;;;2.97;;
16826;SDS011;8530;49.540;8.576;2023-09-19T03:14:07;3.60;;;2.37;;
16826;SDS011;8530;49.540;8.576;2023-09-19T03:16:35;4.03;;;2.30;;
16826;SDS011;8530;49.540;8.576;2023-09-19T03:19:02;6.63;;;2.40;;
16826;SDS011;8530;49.540;8.576;2023-09-19T03:21:30;4.03;;;1.93;;
16826;SDS011;8530;49.540;8.576;2023-09-19T03:23:57;4.70;;;2.80;;
16826;SDS011;8530;49.540;8.576;2023-09-19T03:26:23;5.87;;;2.93;;
16826;SDS011;8530;49.540;8.576;2023-09-19T03:28:52;5.00;;;2.50;;
16826;SDS011;8530;49.540;8.576;2023-09-19T03:31:19;6.77;;;3.10;;
16826;SDS011;8530;49.540;8.576;2023-09-19T03:33:47;3.20;;;2.90;;
16826;SDS011;8530;49.540;8.576;2023-09-19T03:36:13;7.00;;;4.00;;
16826;SDS011;8530;49.540;8.576;2023-09-19T03:38:40;6.07;;;3.37;;
16826;SDS011;8530;49.540;8.576;2023-09-19T03:41:07;4.20;;;2.30;;
16826;SDS011;8530;49.540;8.576;2023-09-19T03:43:34;6.00;;;2.93;;
16826;SDS011;8530;49.540;8.576;2023-09-19T03:46:02;4.40;;;3.37;;
16826;SDS011;8530;49.540;8.576;2023-09-19T03:48:30;4.93;;;3.40;;
16826;SDS011;8530;49.540;8.576;2023-09-19T03:50:57;4.20;;;3.50;;
16826;SDS011;8530;49.540;8.576;2023-09-19T03:53:24;9.40;;;3.77;;
16826;SDS011;8530;49.540;8.576;2023-09-19T03:55:50;12.53;;;4.17;;
16826;SDS011;8530;49.540;8.576;2023-09-19T03:58:17;4.77;;;2.77;;
16826;SDS011;8530;49.540;8.576;2023-09-19T04:00:44;6.63;;;3.07;;
16826;SDS011;8530;49.540;8.576;2023-09-19T04:03:12;4.30;;;3.27;;
16826;SDS011;8530;49.540;8.576;2023-09-19T04:05:44;2.90;;;2.70;;
16826;SDS011;8530;49.540;8.576;2023-09-19T04:08:11;3.50;;;3.20;;
16826;SDS011;8530;49.540;8.576;2023-09-19T04:10:39;5.77;;;3.80;;
16826;SDS011;8530;49.540;8.576;2023-09-19T04:13:07;5.70;;;4.37;;
16826;SDS011;8530;49.540;8.576;2023-09-19T04:15:34;5.67;;;4.27;;
16826;SDS011;8530;49.540;8.576;2023-09-19T04:18:00;6.80;;;3.87;;
16826;SDS011;8530;49.540;8.576;2023-09-19T04:20:30;4.67;;;4.10;;
16826;SDS011;8530;49.540;8.576;2023-09-19T04:22:57;5.60;;;3.67;;
16826;SDS011;8530;49.540;8.576;2023-09-19T04:25:24;4.70;;;3.40;;
16826;SDS011;8530;49.540;8.576;2023-09-19T04:27:51;9.10;;;5.10;;
16826;SDS011;8530;49.540;8.576;2023-09-19T04:30:18;9.90;;;4.80;;
16826;SDS011;8530;49.540;8.576;2023-09-19T04:32:46;6.33;;;4.20;;
16826;SDS011;8530;49.540;8.576;2023-09-19T04:35:15;7.33;;;4.00;;
16826;SDS011;8530;49.540;8.576;2023-09-19T04:37:44;9.10;;;5.00;;
16826;SDS011;8530;49.540;8.576;2023-09-19T04:40:10;6.27;;;3.77;;
16826;SDS011;8530;49.540;8.576;2023-09-19T04:42:42;6.83;;;3.57;;
16826;SDS011;8530;49.540;8.576;2023-09-19T04:45:09;9.43;;;3.90;;
16826;SDS011;8530;49.540;8.576;2023-09-19T04:47:36;5.30;;;4.10;;
16826;SDS011;8530;49.540;8.576;2023-09-19T04:50:05;4.70;;;4.30;;
16826;SDS011;8530;49.540;8.576;2023-09-19T04:52:37;4.83;;;3.97;;
16826;SDS011;8530;49.540;8.576;2023-09-19T04:55:06;3.63;;;3.33;;
16826;SDS011;8530;49.540;8.576;2023-09-19T04:57:34;6.50;;;3.50;;
16826;SDS011;8530;49.540;8.576;2023-09-19T05:00:01;3.80;;;3.00;;
16826;SDS011;8530;49.540;8.576;2023-09-19T05:02:31;5.50;;;2.70;;
16826;SDS011;8530;49.540;8.576;2023-09-19T05:04:59;3.80;;;3.30;;
16826;SDS011;8530;49.540;8.576;2023-09-19T05:07:26;7.50;;;3.40;;
16826;SDS011;8530;49.540;8.576;2023-09-19T05:09:53;5.57;;;3.57;;
16826;SDS011;8530;49.540;8.576;2023-09-19T05:12:21;8.40;;;4.30;;
16826;SDS011;8530;49.540;8.576;2023-09-19T05:14:48;7.13;;;4.33;;
16826;SDS011;8530;49.540;8.576;2023-09-19T05:17:15;6.50;;;3.53;;
16826;SDS011;8530;49.540;8.576;2023-09-19T05:19:42;12.70;;;4.63;;
16826;SDS011;8530;49.540;8.576;2023-09-19T05:22:09;4.10;;;3.70;;
16826;SDS011;8530;49.540;8.576;2023-09-19T05:24:37;6.90;;;4.30;;
16826;SDS011;8530;49.540;8.576;2023-09-19T05:27:04;6.07;;;3.63;;
16826;SDS011;8530;49.540;8.576;2023-09-19T05:29:34;10.00;;;3.90;;
16826;SDS011;8530;49.540;8.576;2023-09-19T05:32:01;7.73;;;3.57;;
16826;SDS011;8530;49.540;8.576;2023-09-19T05:34:28;7.30;;;3.77;;
16826;SDS011;8530;49.540;8.576;2023-09-19T05:36:55;8.10;;;3.53;;
16826;SDS011;8530;49.540;8.576;2023-09-19T05:39:22;9.73;;;4.73;;
16826;SDS011;8530;49.540;8.576;2023-09-19T05:41:49;9.93;;;3.10;;
16826;SDS011;8530;49.540;8.576;2023-09-19T05:44:15;7.50;;;3.60;;
16826;SDS011;8530;49.540;8.576;2023-09-19T05:46:43;6.13;;;3.30;;
16826;SDS011;8530;49.540;8.576;2023-09-19T05:49:11;7.63;;;3.30;;
16826;SDS011;8530;49.540;8.576;2023-09-19T05:51:38;7.73;;;3.70;;
16826;SDS011;8530;49.540;8.576;2023-09-19T05:54:05;4.60;;;2.87;;
16826;SDS011;8530;49.540;8.576;2023-09-19T05:56:31;10.47;;;3.87;;
16826;SDS011;8530;49.540;8.576;2023-09-19T05:58:58;13.40;;;3.77;;
16826;SDS011;8530;49.540;8.576;2023-09-19T06:01:25;7.17;;;3.30;;
16826;SDS011;8530;49.540;8.576;2023-09-19T06:03:54;9.00;;;3.17;;
16826;SDS011;8530;49.540;8.576;2023-09-19T06:06:20;8.40;;;4.30;;
16826;SDS011;8530;49.540;8.576;2023-09-19T06:08:49;8.43;;;3.00;;
16826;SDS011;8530;49.540;8.576;2023-09-19T06:11:16;5.73;;;3.13;;
16826;SDS011;8530;49.540;8.576;2023-09-19T06:13:45;8.30;;;3.50;;
16826;SDS011;8530;49.540;8.576;2023-09-19T06:16:12;5.03;;;2.80;;
16826;SDS011;8530;49.540;8.576;2023-09-19T06:18:39;13.20;;;3.77;;
16826;SDS011;8530;49.540;8.576;2023-09-19T06:21:07;5.10;;;2.67;;
16826;SDS011;8530;49.540;8.576;2023-09-19T06:23:34;7.00;;;3.83;;
16826;SDS011;8530;49.540;8.576;2023-09-19T06:26:01;8.87;;;5.43;;
16826;SDS011;8530;49.540;8.576;2023-09-19T06:28:28;9.30;;;3.60;;
16826;SDS011;8530;49.540;8.576;2023-09-19T06:30:55;6.70;;;3.40;;
16826;SDS011;8530;49.540;8.576;2023-09-19T06:33:22;9.20;;;3.30;;
16826;SDS011;8530;49.540;8.576;2023-09-19T06:35:49;4.37;;;2.60;;
16826;SDS011;8530;49.540;8.576;2023-09-19T06:38:19;6.07;;;3.07;;
16826;SDS011;8530;49.540;8.576;2023-09-19T06:40:46;10.07;;;2.90;;
16826;SDS011;8530;49.540;8.576;2023-09-19T06:43:13;19.43;;;3.10;;
16826;SDS011;8530;49.540;8.576;2023-09-19T06:45:39;8.33;;;2.47;;
16826;SDS011;8530;49.540;8.576;2023-09-19T06:48:07;5.20;;;2.23;;
16826;SDS011;8530;49.540;8.576;2023-09-19T06:50:35;5.87;;;2.70;;
16826;SDS011;8530;49.540;8.576;2023-09-19T06:53:03;3.17;;;1.90;;
16826;SDS011;8530;49.540;8.576;2023-09-19T06:55:32;6.60;;;2.90;;
16826;SDS011;8530;49.540;8.576;2023-09-19T06:57:59;4.63;;;2.17;;
16826;SDS011;8530;49.540;8.576;2023-09-19T07:00:26;5.20;;;2.13;;
16826;SDS011;8530;49.540;8.576;2023-09-19T07:02:56;8.83;;;2.13;;
16826;SDS011;8530;49.540;8.576;2023-09-19T07:05:25;5.53;;;2.57;;
16826;SDS011;8530;49.540;8.576;2023-09-19T07:07:53;5.63;;;2.53;;
16826;SDS011;8530;49.540;8.576;2023-09-19T07:10:20;8.93;;;2.90;;
16826;SDS011;8530;49.540;8.576;2023-09-19T07:12:54;13.60;;;8.20;;
16826;SDS011;8530;49.540;8.576;2023-09-19T07:15:22;5.00;;;2.70;;
16826;SDS011;8530;49.540;8.576;2023-09-19T07:17:50;6.10;;;2.40;;
16826;SDS011;8530;49.540;8.576;2023-09-19T07:20:17;8.60;;;3.47;;
16826;SDS011;8530;49.540;8.576;2023-09-19T07:22:44;5.07;;;2.30;;
16826;SDS011;8530;49.540;8.576;2023-09-19T07:25:11;5.00;;;1.80;;
16826;SDS011;8530;49.540;8.576;2023-09-19T07:27:39;7.93;;;3.27;;
16826;SDS011;8530;49.540;8.576;2023-09-19T07:30:07;8.93;;;2.13;;
16826;SDS011;8530;49.540;8.576;2023-09-19T07:32:35;6.63;;;2.17;;
16826;SDS011;8530;49.540;8.576;2023-09-19T07:35:02;5.30;;;2.67;;
16826;SDS011;8530;49.540;8.576;2023-09-19T07:37:29;7.50;;;2.20;;
16826;SDS011;8530;49.540;8.576;2023-09-19T07:39:58;4.43;;;2.03;;
16826;SDS011;8530;49.540;8.576;2023-09-19T07:42:24;9.00;;;2.33;;
16826;SDS011;8530;49.540;8.576;2023-09-19T07:44:51;5.03;;;2.60;;
16826;SDS011;8530;49.540;8.576;2023-09-19T07:47:20;6.67;;;2.40;;
16826;SDS011;8530;49.540;8.576;2023-09-19T07:49:47;11.23;;;2.37;;
16826;SDS011;8530;49.540;8.576;2023-09-19T07:52:14;3.10;;;1.90;;
16826;SDS011;8530;49.540;8.576;2023-09-19T07:54:40;5.07;;;2.00;;
16826;SDS011;8530;49.540;8.576;2023-09-19T07:57:09;4.13;;;1.83;;
16826;SDS011;8530;49.540;8.576;2023-09-19T07:59:35;4.07;;;2.20;;
16826;SDS011;8530;49.540;8.576;2023-09-19T08:02:03;3.33;;;2.10;;
16826;SDS011;8530;49.540;8.576;2023-09-19T08:04:32;3.20;;;1.80;;
16826;SDS011;8530;49.540;8.576;2023-09-19T08:06:58;5.43;;;2.03;;
16826;SDS011;8530;49.540;8.576;2023-09-19T08:09:28;3.00;;;2.17;;
16826;SDS011;8530;49.540;8.576;2023-09-19T08:11:58;2.30;;;1.73;;
16826;SDS011;8530;49.540;8.576;2023-09-19T08:14:28;3.73;;;1.90;;
16826;SDS011;8530;49.540;8.576;2023-09-19T08:16:56;5.83;;;2.27;;
16826;SDS011;8530;49.540;8.576;2023-09-19T08:19:23;3.00;;;1.93;;
16826;SDS011;8530;49.540;8.576;2023-09-19T08:21:54;11.80;;;2.80;;
16826;SDS011;8530;49.540;8.576;2023-09-19T08:24:23;3.87;;;2.23;;
16826;SDS011;8530;49.540;8.576;2023-09-19T08:26:53;6.57;;;2.03;;
16826;SDS011;8530;49.540;8.576;2023-09-19T08:29:20;11.80;;;2.53;;
16826;SDS011;8530;49.540;8.576;2023-09-19T08:31:52;8.13;;;2.40;;
16826;SDS011;8530;49.540;8.576;2023-09-19T08:34:20;9.90;;;2.50;;
16826;SDS011;8530;49.540;8.576;2023-09-19T08:36:48;4.23;;;2.40;;
16826;SDS011;8530;49.540;8.576;2023-09-19T08:39:17;4.90;;;2.33;;
16826;SDS011;8530;49.540;8.576;2023-09-19T08:41:44;8.60;;;1.90;;
16826;SDS011;8530;49.540;8.576;2023-09-19T08:44:11;6.37;;;2.53;;
16826;SDS011;8530;49.540;8.576;2023-09-19T08:46:38;3.50;;;2.03;;
16826;SDS011;8530;49.540;8.576;2023-09-19T08:49:08;4.30;;;2.30;;
16826;SDS011;8530;49.540;8.576;2023-09-19T08:51:47;4.87;;;2.33;;
16826;SDS011;8530;49.540;8.576;2023-09-19T08:54:23;4.17;;;3.13;;
16826;SDS011;8530;49.540;8.576;2023-09-19T08:56:52;8.93;;;2.90;;
16826;SDS011;8530;49.540;8.576;2023-09-19T08:59:21;5.23;;;2.57;;
16826;SDS011;8530;49.540;8.576;2023-09-19T09:01:51;3.60;;;2.10;;
16826;SDS011;8530;49.540;8.576;2023-09-19T09:04:19;9.73;;;3.50;;
16826;SDS011;8530;49.540;8.576;2023-09-19T09:06:46;5.73;;;2.80;;
16826;SDS011;8530;49.540;8.576;2023-09-19T09:09:18;4.00;;;2.30;;
16826;SDS011;8530;49.540;8.576;2023-09-19T09:11:47;8.43;;;2.67;;
16826;SDS011;8530;49.540;8.576;2023-09-19T09:14:16;3.03;;;2.70;;
16826;SDS011;8530;49.540;8.576;2023-09-19T09:16:44;9.90;;;3.70;;
16826;SDS011;8530;49.540;8.576;2023-09-19T09:19:13;4.50;;;2.43;;
16826;SDS011;8530;49.540;8.576;2023-09-19T09:21:45;10.10;;;3.07;;
16826;SDS011;8530;49.540;8.576;2023-09-19T09:24:28;3.87;;;1.93;;
16826;SDS011;8530;49.540;8.576;2023-09-19T09:26:57;4.50;;;2.50;;
16826;SDS011;8530;49.540;8.576;2023-09-19T09:29:39;4.43;;;2.30;;
16826;SDS011;8530;49.540;8.576;2023-09-19T09:32:18;4.70;;;1.93;;
16826;SDS011;8530;49.540;8.576;2023-09-19T09:34:45;5.60;;;2.40;;
16826;SDS011;8530;49.540;8.576;2023-09-19T09:37:14;3.17;;;1.93;;
16826;SDS011;8530;49.540;8.576;2023-09-19T09:39:48;5.87;;;1.90;;
16826;SDS011;8530;49.540;8.576;2023-09-19T09:42:24;3.20;;;2.10;;
16826;SDS011;8530;49.540;8.576;2023-09-19T09:45:12;7.13;;;2.93;;
16826;SDS011;8530;49.540;8.576;2023-09-19T09:47:43;5.90;;;2.30;;
16826;SDS011;8530;49.540;8.576;2023-09-19T09:50:23;9.50;;;2.33;;
16826;SDS011;8530;49.540;8.576;2023-09-19T09:52:54;5.90;;;2.10;;
16826;SDS011;8530;49.540;8.576;2023-09-19T09:55:28;5.50;;;3.90;;
16826;SDS011;8530;49.540;8.576;2023-09-19T09:58:05;5.20;;;2.20;;
16826;SDS011;8530;49.540;8.576;2023-09-19T10:00:52;3.03;;;2.07;;
16826;SDS011;8530;49.540;8.576;2023-09-19T10:03:23;4.10;;;2.40;;
16826;SDS011;8530;49.540;8.576;2023-09-19T10:05:59;4.90;;;2.27;;
16826;SDS011;8530;49.540;8.576;2023-09-19T10:08:36;12.03;;;3.50;;
16826;SDS011;8530;49.540;8.576;2023-09-19T10:11:15;4.20;;;2.23;;
16826;SDS011;8530;49.540;8.576;2023-09-19T10:13:44;3.83;;;2.10;;
16826;SDS011;8530;49.540;8.576;2023-09-19T10:16:12;4.73;;;2.23;;
16826;SDS011;8530;49.540;8.576;2023-09-19T10:18:44;6.87;;;2.50;;
16826;SDS011;8530;49.540;8.576;2023-09-19T10:21:14;3.63;;;2.30;;
16826;SDS011;8530;49.540;8.576;2023-09-19T10:23:47;8.23;;;2.50;;
16826;SDS011;8530;49.540;8.576;2023-09-19T10:26:17;8.30;;;2.43;;
16826;SDS011;8530;49.540;8.576;2023-09-19T10:28:47;6.83;;;2.20;;
16826;SDS011;8530;49.540;8.576;2023-09-19T10:31:18;2.67;;;1.97;;
16826;SDS011;8530;49.540;8.576;2023-09-19T10:33:46;3.03;;;1.93;;
16826;SDS011;8530;49.540;8.576;2023-09-19T10:36:15;4.80;;;2.90;;
16826;SDS011;8530;49.540;8.576;2023-09-19T10:38:44;3.30;;;1.70;;
16826;SDS011;8530;49.540;8.576;2023-09-19T10:41:15;3.93;;;2.10;;
16826;SDS011;8530;49.540;8.576;2023-09-19T10:43:44;10.10;;;2.73;;
16826;SDS011;8530;49.540;8.576;2023-09-19T10:46:15;7.97;;;2.63;;
16826;SDS011;8530;49.540;8.576;2023-09-19T10:48:42;5.07;;;2.00;;
16826;SDS011;8530;49.540;8.576;2023-09-19T10:51:14;4.47;;;2.30;;
16826;SDS011;8530;49.540;8.576;2023-09-19T10:53:45;5.27;;;1.70;;
16826;SDS011;8530;49.540;8.576;2023-09-19T10:56:16;6.07;;;2.03;;
16826;SDS011;8530;49.540;8.576;2023-09-19T10:58:47;3.20;;;2.07;;
16826;SDS011;8530;49.540;8.576;2023-09-19T11:01:16;5.10;;;2.10;;
16826;SDS011;8530;49.540;8.576;2023-09-19T11:03:43;5.30;;;1.80;;
16826;SDS011;8530;49.540;8.576;2023-09-19T11:06:14;9.90;;;2.80;;
16826;SDS011;8530;49.540;8.576;2023-09-19T11:08:59;4.40;;;1.80;;
16826;SDS011;8530;49.540;8.576;2023-09-19T11:11:44;7.80;;;2.30;;
16826;SDS011;8530;49.540;8.576;2023-09-19T11:14:17;2.53;;;1.70;;
16826;SDS011;8530;49.540;8.576;2023-09-19T11:20:19;4.33;;;2.00;;
16826;SDS011;8530;49.540;8.576;2023-09-19T11:23:17;4.20;;;1.90;;
16826;SDS011;8530;49.540;8.576;2023-09-19T11:25:47;4.50;;;2.13;;
16826;SDS011;8530;49.540;8.576;2023-09-19T11:28:29;4.03;;;1.80;;
16826;SDS011;8530;49.540;8.576;2023-09-19T11:37:02;5.33;;;2.00;;
16826;SDS011;8530;49.540;8.576;2023-09-19T11:39:29;4.93;;;2.10;;
16826;SDS011;8530;49.540;8.576;2023-09-19T11:41:57;4.30;;;1.80;;
16826;SDS011;8530;49.540;8.576;2023-09-19T11:44:32;7.00;;;2.33;;
16826;SDS011;8530;49.540;8.576;2023-09-19T11:47:04;4.43;;;1.97;;
16826;SDS011;8530;49.540;8.576;2023-09-19T11:49:32;4.67;;;1.87;;
16826;SDS011;8530;49.540;8.576;2023-09-19T11:52:00;5.40;;;1.93;;
16826;SDS011;8530;49.540;8.576;2023-09-19T11:54:32;2.90;;;1.53;;
16826;SDS011;8530;49.540;8.576;2023-09-19T11:57:00;3.40;;;1.90;;
16826;SDS011;8530;49.540;8.576;2023-09-19T11:59:28;4.70;;;1.40;;
16826;SDS011;8530;49.540;8.576;2023-09-19T12:01:56;5.23;;;1.70;;
16826;SDS011;8530;49.540;8.576;2023-09-19T12:04:33;4.33;;;1.93;;
16826;SDS011;8530;49.540;8.576;2023-09-19T12:07:03;4.33;;;1.73;;
16826;SDS011;8530;49.540;8.576;2023-09-19T12:09:32;4.37;;;2.10;;
16826;SDS011;8530;49.540;8.576;2023-09-19T12:11:59;3.50;;;2.20;;
16826;SDS011;8530;49.540;8.576;2023-09-19T12:14:26;5.50;;;2.13;;
16826;SDS011;8530;49.540;8.576;2023-09-19T12:16:54;7.60;;;2.07;;
16826;SDS011;8530;49.540;8.576;2023-09-19T12:19:21;9.57;;;1.57;;
16826;SDS011;8530;49.540;8.576;2023-09-19T12:21:55;2.63;;;1.60;;
16826;SDS011;8530;49.540;8.576;2023-09-19T12:24:29;4.53;;;1.80;;
16826;SDS011;8530;49.540;8.576;2023-09-19T12:27:00;5.50;;;2.07;;
16826;SDS011;8530;49.540;8.576;2023-09-19T12:29:30;4.10;;;1.80;;
16826;SDS011;8530;49.540;8.576;2023-09-19T12:31:59;4.30;;;2.03;;
16826;SDS011;8530;49.540;8.576;2023-09-19T12:34:28;9.00;;;1.80;;
16826;SDS011;8530;49.540;8.576;2023-09-19T12:37:06;3.57;;;2.00;;
16826;SDS011;8530;49.540;8.576;2023-09-19T12:39:46;3.70;;;1.90;;
16826;SDS011;8530;49.540;8.576;2023-09-19T12:42:17;4.83;;;1.93;;
16826;SDS011;8530;49.540;8.576;2023-09-19T12:44:47;8.43;;;1.70;;
16826;SDS011;8530;49.540;8.576;2023-09-19T12:47:17;4.37;;;1.77;;
16826;SDS011;8530;49.540;8.576;2023-09-19T12:50:07;13.03;;;2.07;;
16826;SDS011;8530;49.540;8.576;2023-09-19T12:52:40;6.70;;;2.07;;
16826;SDS011;8530;49.540;8.576;2023-09-19T12:55:07;4.47;;;2.00;;
16826;SDS011;8530;49.540;8.576;2023-09-19T12:57:55;3.80;;;1.70;;
16826;SDS011;8530;49.540;8.576;2023-09-19T13:00:30;4.20;;;1.70;;
16826;SDS011;8530;49.540;8.576;2023-09-19T13:05:57;2.97;;;1.80;;
16826;SDS011;8530;49.540;8.576;2023-09-19T13:08:28;5.60;;;2.03;;
16826;SDS011;8530;49.540;8.576;2023-09-19T13:11:10;2.97;;;1.40;;
16826;SDS011;8530;49.540;8.576;2023-09-19T13:13:40;4.90;;;2.20;;
16826;SDS011;8530;49.540;8.576;2023-09-19T13:16:09;4.23;;;2.20;;
16826;SDS011;8530;49.540;8.576;2023-09-19T13:18:46;4.73;;;2.17;;
16826;SDS011;8530;49.540;8.576;2023-09-19T13:21:16;5.83;;;1.80;;
16826;SDS011;8530;49.540;8.576;2023-09-19T13:23:50;4.13;;;2.10;;
16826;SDS011;8530;49.540;8.576;2023-09-19T13:26:17;9.00;;;2.10;;
16826;SDS011;8530;49.540;8.576;2023-09-19T13:28:46;4.57;;;1.80;;
16826;SDS011;8530;49.540;8.576;2023-09-19T13:31:14;5.00;;;1.70;;
16826;SDS011;8530;49.540;8.576;2023-09-19T13:33:44;2.57;;;1.47;;
16826;SDS011;8530;49.540;8.576;2023-09-19T13:36:11;4.23;;;1.73;;
16826;SDS011;8530;49.540;8.576;2023-09-19T13:38:39;4.50;;;1.80;;
16826;SDS011;8530;49.540;8.576;2023-09-19T13:41:07;2.50;;;1.43;;
16826;SDS011;8530;49.540;8.576;2023-09-19T13:43:35;4.60;;;1.50;;
16826;SDS011;8530;49.540;8.576;2023-09-19T13:46:03;3.73;;;1.67;;
16826;SDS011;8530;49.540;8.576;2023-09-19T13:48:30;5.83;;;1.80;;
16826;SDS011;8530;49.540;8.576;2023-09-19T13:51:01;2.60;;;1.50;;
16826;SDS011;8530;49.540;8.576;2023-09-19T13:53:28;5.10;;;2.43;;
16826;SDS011;8530;49.540;8.576;2023-09-19T13:55:55;3.70;;;1.80;;
16826;SDS011;8530;49.540;8.576;2023-09-19T13:58:21;4.17;;;2.13;;
16826;SDS011;8530;49.540;8.576;2023-09-19T14:00:49;5.40;;;1.67;;
16826;SDS011;8530;49.540;8.576;2023-09-19T14:03:17;3.53;;;1.73;;
16826;SDS011;8530;49.540;8.576;2023-09-19T14:05:45;4.67;;;2.27;;
16826;SDS011;8530;49.540;8.576;2023-09-19T14:08:13;15.10;;;2.17;;
16826;SDS011;8530;49.540;8.576;2023-09-19T14:10:39;5.00;;;1.77;;
16826;SDS011;8530;49.540;8.576;2023-09-19T14:13:06;3.60;;;1.60;;
16826;SDS011;8530;49.540;8.576;2023-09-19T14:15:36;4.80;;;2.13;;
16826;SDS011;8530;49.540;8.576;2023-09-19T14:18:03;5.50;;;1.90;;
16826;SDS011;8530;49.540;8.576;2023-09-19T14:20:31;5.70;;;2.27;;
16826;SDS011;8530;49.540;8.576;2023-09-19T14:22:58;5.20;;;1.80;;
16826;SDS011;8530;49.540;8.576;2023-09-19T14:25:25;4.17;;;2.27;;
16826;SDS011;8530;49.540;8.576;2023-09-19T14:27:52;5.50;;;1.77;;
16826;SDS011;8530;49.540;8.576;2023-09-19T14:30:18;8.50;;;2.00;;
16826;SDS011;8530;49.540;8.576;2023-09-19T14:32:46;2.67;;;1.80;;
16826;SDS011;8530;49.540;8.576;2023-09-19T14:35:12;2.00;;;1.40;;
16826;SDS011;8530;49.540;8.576;2023-09-19T14:37:41;3.47;;;1.20;;
16826;SDS011;8530;49.540;8.576;2023-09-19T14:40:08;3.33;;;1.43;;
16826;SDS011;8530;49.540;8.576;2023-09-19T14:42:35;5.10;;;2.00;;
16826;SDS011;8530;49.540;8.576;2023-09-19T14:45:05;4.00;;;1.50;;
16826;SDS011;8530;49.540;8.576;2023-09-19T14:47:32;2.43;;;1.30;;
16826;SDS011;8530;49.540;8.576;2023-09-19T14:49:59;4.70;;;1.63;;
16826;SDS011;8530;49.540;8.576;2023-09-19T14:52:27;6.90;;;1.90;;
16826;SDS011;8530;49.540;8.576;2023-09-19T14:54:55;6.87;;;1.57;;
16826;SDS011;8530;49.540;8.576;2023-09-19T14:57:22;2.37;;;1.20;;
16826;SDS011;8530;49.540;8.576;2023-09-19T14:59:49;2.70;;;1.53;;
16826;SDS011;8530;49.540;8.576;2023-09-19T15:02:16;4.33;;;1.30;;
16826;SDS011;8530;49.540;8.576;2023-09-19T15:04:44;2.63;;;1.40;;
16826;SDS011;8530;49.540;8.576;2023-09-19T15:07:11;3.63;;;1.87;;
16826;SDS011;8530;49.540;8.576;2023-09-19T15:09:39;6.50;;;1.87;;
16826;SDS011;8530;49.540;8.576;2023-09-19T15:12:08;2.80;;;1.40;;
16826;SDS011;8530;49.540;8.576;2023-09-19T15:14:35;8.07;;;1.70;;
16826;SDS011;8530;49.540;8.576;2023-09-19T15:17:02;4.00;;;1.63;;
16826;SDS011;8530;49.540;8.576;2023-09-19T15:19:29;3.00;;;1.60;;
16826;SDS011;8530;49.540;8.576;2023-09-19T15:21:56;3.27;;;1.63;;
16826;SDS011;8530;49.540;8.576;2023-09-19T15:24:23;7.00;;;2.50;;
16826;SDS011;8530;49.540;8.576;2023-09-19T15:26:51;3.20;;;1.53;;